sensor_id;sensor_type;location;lat;lon;timestamp;pressure;altitude;pressure_sealevel;temperature;humidity
71621;BME280;59471;42.254;23.102;2023-03-24T00:00:40;96025.78;;;6.18;77.21
71621;BME280;59471;42.254;23.102;2023-03-24T00:03:07;96019.31;;;6.22;76.90
71621;BME280;59471;42.254;23.102;2023-03-24T00:05:32;96016.13;;;6.29;77.13
71621;BME280;59471;42.254;23.102;2023-03-24T00:07:58;96012.25;;;6.33;77.07
71621;BME280;59471;42.254;23.102;2023-03-24T00:10:26;96013.47;;;6.11;78.88
71621;BME280;59471;42.254;23.102;2023-03-24T00:12:55;96008.59;;;6.25;77.47
71621;BME280;59471;42.254;23.102;2023-03-24T00:15:23;96011.41;;;6.14;77.74
71621;BME280;59471;42.254;23.102;2023-03-24T00:17:49;96014.59;;;5.71;80.28
71621;BME280;59471;42.254;23.102;2023-03-24T00:20:17;96016.59;;;5.87;79.55
71621;BME280;59471;42.254;23.102;2023-03-24T00:22:47;96023.94;;;5.91;nan
71621;BME280;59471;42.254;23.102;2023-03-24T00:25:20;96023.91;;;5.64;80.73
71621;BME280;59471;42.254;23.102;2023-03-24T00:27:49;96019.81;;;5.61;80.17
71621;BME280;59471;42.254;23.102;2023-03-24T00:30:17;96026.88;;;5.78;79.46
71621;BME280;59471;42.254;23.102;2023-03-24T00:32:43;96019.41;;;5.66;77.70
71621;BME280;59471;42.254;23.102;2023-03-24T00:35:12;96016.34;;;5.43;78.46
71621;BME280;59471;42.254;23.102;2023-03-24T00:37:39;96018.94;;;5.43;78.34
71621;BME280;59471;42.254;23.102;2023-03-24T00:40:09;96016.09;;;5.36;79.03
71621;BME280;59471;42.254;23.102;2023-03-24T00:42:44;96020.44;;;5.35;78.37
71621;BME280;59471;42.254;23.102;2023-03-24T00:45:13;96024.84;;;5.25;78.79
71621;BME280;59471;42.254;23.102;2023-03-24T00:47:41;96014.81;;;5.50;78.50
71621;BME280;59471;42.254;23.102;2023-03-24T00:50:14;96020.41;;;5.55;78.11
71621;BME280;59471;42.254;23.102;2023-03-24T00:52:41;96016.28;;;5.62;77.64
71621;BME280;59471;42.254;23.102;2023-03-24T00:55:09;96012.47;;;5.56;78.12
71621;BME280;59471;42.254;23.102;2023-03-24T00:57:42;96012.19;;;5.60;77.31
71621;BME280;59471;42.254;23.102;2023-03-24T01:00:19;96005.75;;;5.54;77.03
71621;BME280;59471;42.254;23.102;2023-03-24T01:02:49;96016.78;;;5.28;77.04
71621;BME280;59471;42.254;23.102;2023-03-24T01:05:24;96010.34;;;5.23;77.42
71621;BME280;59471;42.254;23.102;2023-03-24T01:07:59;96008.78;;;4.93;78.99
71621;BME280;59471;42.254;23.102;2023-03-24T01:10:27;96002.78;;;4.82;79.48
71621;BME280;59471;42.254;23.102;2023-03-24T01:12:56;95998.66;;;4.90;79.33
71621;BME280;59471;42.254;23.102;2023-03-24T01:15:29;96003.88;;;4.70;80.09
71621;BME280;59471;42.254;23.102;2023-03-24T01:17:57;96005.22;;;4.74;80.57
71621;BME280;59471;42.254;23.102;2023-03-24T01:20:26;96005.75;;;5.07;79.66
71621;BME280;59471;42.254;23.102;2023-03-24T01:22:57;96003.81;;;5.19;79.04
71621;BME280;59471;42.254;23.102;2023-03-24T01:25:24;96009.53;;;5.22;78.43
71621;BME280;59471;42.254;23.102;2023-03-24T01:27:51;95995.34;;;5.07;77.67
71621;BME280;59471;42.254;23.102;2023-03-24T01:30:22;95997.03;;;4.98;78.53
71621;BME280;59471;42.254;23.102;2023-03-24T01:32:49;96001.66;;;5.14;77.45
71621;BME280;59471;42.254;23.102;2023-03-24T01:35:16;96003.03;;;4.99;78.46
71621;BME280;59471;42.254;23.102;2023-03-24T01:37:42;95996.06;;;4.99;78.06
71621;BME280;59471;42.254;23.102;2023-03-24T01:40:10;96004.81;;;4.88;77.96
71621;BME280;59471;42.254;23.102;2023-03-24T01:42:39;95992.28;;;4.64;78.76
71621;BME280;59471;42.254;23.102;2023-03-24T01:48:14;96004.69;;;4.51;79.77
71621;BME280;59471;42.254;23.102;2023-03-24T01:50:44;95996.22;;;4.69;79.11
71621;BME280;59471;42.254;23.102;2023-03-24T01:53:12;96014.25;;;4.70;78.16
71621;BME280;59471;42.254;23.102;2023-03-24T01:55:40;96008.22;;;4.70;78.36
71621;BME280;59471;42.254;23.102;2023-03-24T01:58:08;96009.72;;;4.72;78.07
71621;BME280;59471;42.254;23.102;2023-03-24T02:00:34;96012.31;;;4.72;77.90
71621;BME280;59471;42.254;23.102;2023-03-24T02:03:06;96008.09;;;4.71;78.13
71621;BME280;59471;42.254;23.102;2023-03-24T02:05:36;96010.97;;;4.68;77.20
71621;BME280;59471;42.254;23.102;2023-03-24T02:11:22;96001.94;;;4.43;78.82
71621;BME280;59471;42.254;23.102;2023-03-24T02:13:49;95998.13;;;4.37;78.67
71621;BME280;59471;42.254;23.102;2023-03-24T02:16:18;96007.56;;;4.38;78.24
71621;BME280;59471;42.254;23.102;2023-03-24T02:27:46;96018.03;;;4.27;77.39
71621;BME280;59471;42.254;23.102;2023-03-24T02:45:25;96022.16;;;3.89;80.97
71621;BME280;59471;42.254;23.102;2023-03-24T02:51:19;96022.09;;;4.10;79.66
71621;BME280;59471;42.254;23.102;2023-03-24T02:54:10;96018.78;;;3.99;80.22
71621;BME280;59471;42.254;23.102;2023-03-24T02:56:46;96023.28;;;3.97;79.70
71621;BME280;59471;42.254;23.102;2023-03-24T03:02:08;96025.03;;;3.86;80.86
71621;BME280;59471;42.254;23.102;2023-03-24T03:04:44;96017.97;;;3.98;80.04
71621;BME280;59471;42.254;23.102;2023-03-24T03:07:16;96011.47;;;4.13;79.46
71621;BME280;59471;42.254;23.102;2023-03-24T03:09:56;96000.81;;;4.07;78.74
71621;BME280;59471;42.254;23.102;2023-03-24T03:12:44;95986.91;;;4.08;79.50
71621;BME280;59471;42.254;23.102;2023-03-24T03:15:15;95991.94;;;4.19;79.58
71621;BME280;59471;42.254;23.102;2023-03-24T03:17:50;95992.09;;;4.27;79.50
71621;BME280;59471;42.254;23.102;2023-03-24T03:20:23;95983.88;;;4.12;79.29
71621;BME280;59471;42.254;23.102;2023-03-24T03:22:57;95976.78;;;4.05;79.60
71621;BME280;59471;42.254;23.102;2023-03-24T03:25:29;95984.94;;;3.90;81.06
71621;BME280;59471;42.254;23.102;2023-03-24T03:28:00;95975.69;;;3.98;79.84
71621;BME280;59471;42.254;23.102;2023-03-24T03:30:54;95986.06;;;3.98;80.03
71621;BME280;59471;42.254;23.102;2023-03-24T03:33:30;95981.06;;;3.75;80.47
71621;BME280;59471;42.254;23.102;2023-03-24T03:39:32;95994.97;;;3.74;81.13
71621;BME280;59471;42.254;23.102;2023-03-24T03:42:04;95990.81;;;3.92;81.56
71621;BME280;59471;42.254;23.102;2023-03-24T03:44:31;96001.88;;;3.94;80.63
71621;BME280;59471;42.254;23.102;2023-03-24T03:46:57;95998.31;;;3.95;80.54
71621;BME280;59471;42.254;23.102;2023-03-24T03:49:23;95997.25;;;4.08;79.78
71621;BME280;59471;42.254;23.102;2023-03-24T03:51:50;95989.31;;;4.00;79.57
71621;BME280;59471;42.254;23.102;2023-03-24T03:54:16;96001.19;;;3.92;80.00
71621;BME280;59471;42.254;23.102;2023-03-24T03:56:42;95996.97;;;4.01;80.22
71621;BME280;59471;42.254;23.102;2023-03-24T03:59:20;95999.16;;;4.06;79.24
71621;BME280;59471;42.254;23.102;2023-03-24T04:01:52;95997.38;;;3.97;80.24
71621;BME280;59471;42.254;23.102;2023-03-24T04:04:37;95997.28;;;4.17;79.98
71621;BME280;59471;42.254;23.102;2023-03-24T04:07:21;95993.72;;;4.09;79.59
71621;BME280;59471;42.254;23.102;2023-03-24T04:15:35;96004.97;;;3.79;80.83
71621;BME280;59471;42.254;23.102;2023-03-24T04:20:47;96017.16;;;3.98;79.34
71621;BME280;59471;42.254;23.102;2023-03-24T04:23:28;96016.19;;;3.58;80.42
71621;BME280;59471;42.254;23.102;2023-03-24T04:31:55;96023.31;;;3.66;81.17
71621;BME280;59471;42.254;23.102;2023-03-24T04:34:31;96019.69;;;3.47;81.55
71621;BME280;59471;42.254;23.102;2023-03-24T04:37:12;96034.59;;;3.65;81.24
71621;BME280;59471;42.254;23.102;2023-03-24T04:39:42;96037.13;;;3.76;80.87
71621;BME280;59471;42.254;23.102;2023-03-24T04:42:16;96039.47;;;3.79;80.58
71621;BME280;59471;42.254;23.102;2023-03-24T04:44:45;96032.78;;;3.56;80.39
71621;BME280;59471;42.254;23.102;2023-03-24T04:47:17;96025.38;;;3.41;81.62
71621;BME280;59471;42.254;23.102;2023-03-24T04:49:45;96038.69;;;3.37;81.48
71621;BME280;59471;42.254;23.102;2023-03-24T04:52:11;96032.28;;;3.62;81.45
71621;BME280;59471;42.254;23.102;2023-03-24T04:54:36;96035.59;;;3.74;81.63
71621;BME280;59471;42.254;23.102;2023-03-24T04:57:02;96036.47;;;3.84;80.73
71621;BME280;59471;42.254;23.102;2023-03-24T04:59:29;96036.44;;;3.74;82.01
71621;BME280;59471;42.254;23.102;2023-03-24T05:02:01;96039.72;;;3.76;82.21
71621;BME280;59471;42.254;23.102;2023-03-24T05:04:27;96046.50;;;3.67;82.07
71621;BME280;59471;42.254;23.102;2023-03-24T05:06:54;96049.41;;;3.84;82.35
71621;BME280;59471;42.254;23.102;2023-03-24T05:09:22;96042.50;;;3.94;80.54
71621;BME280;59471;42.254;23.102;2023-03-24T05:11:49;96047.81;;;3.62;81.85
71621;BME280;59471;42.254;23.102;2023-03-24T05:14:15;96046.53;;;3.77;81.96
71621;BME280;59471;42.254;23.102;2023-03-24T05:16:41;96053.97;;;3.91;81.65
71621;BME280;59471;42.254;23.102;2023-03-24T05:19:07;96058.88;;;3.94;81.44
71621;BME280;59471;42.254;23.102;2023-03-24T05:21:33;96059.72;;;4.05;81.13
71621;BME280;59471;42.254;23.102;2023-03-24T05:23:59;96062.75;;;4.10;81.48
71621;BME280;59471;42.254;23.102;2023-03-24T05:26:25;96066.00;;;4.12;81.78
71621;BME280;59471;42.254;23.102;2023-03-24T05:28:51;96063.03;;;4.07;82.34
71621;BME280;59471;42.254;23.102;2023-03-24T05:31:17;96067.94;;;4.10;82.41
71621;BME280;59471;42.254;23.102;2023-03-24T05:33:43;96072.25;;;4.00;83.31
71621;BME280;59471;42.254;23.102;2023-03-24T05:36:10;96075.41;;;4.13;83.09
71621;BME280;59471;42.254;23.102;2023-03-24T05:38:36;96069.34;;;4.33;82.30
71621;BME280;59471;42.254;23.102;2023-03-24T05:41:01;96057.75;;;4.37;82.65
71621;BME280;59471;42.254;23.102;2023-03-24T05:43:27;96053.72;;;4.64;80.86
71621;BME280;59471;42.254;23.102;2023-03-24T05:45:53;96062.31;;;4.84;79.96
71621;BME280;59471;42.254;23.102;2023-03-24T05:48:20;96063.94;;;4.95;80.31
71621;BME280;59471;42.254;23.102;2023-03-24T05:50:46;96066.53;;;4.95;80.26
71621;BME280;59471;42.254;23.102;2023-03-24T05:53:12;96070.53;;;4.89;80.51
71621;BME280;59471;42.254;23.102;2023-03-24T05:55:38;96071.31;;;5.09;80.35
71621;BME280;59471;42.254;23.102;2023-03-24T05:58:04;96073.91;;;5.09;80.95
71621;BME280;59471;42.254;23.102;2023-03-24T06:00:30;96068.31;;;5.33;79.54
71621;BME280;59471;42.254;23.102;2023-03-24T06:02:58;96077.28;;;5.58;79.89
71621;BME280;59471;42.254;23.102;2023-03-24T06:05:25;96071.78;;;5.61;79.57
71621;BME280;59471;42.254;23.102;2023-03-24T06:07:51;96073.91;;;5.19;80.73
71621;BME280;59471;42.254;23.102;2023-03-24T06:10:26;96069.63;;;5.47;79.36
71621;BME280;59471;42.254;23.102;2023-03-24T06:12:54;96065.44;;;5.17;80.11
71621;BME280;59471;42.254;23.102;2023-03-24T06:15:21;96061.47;;;5.22;80.11
71621;BME280;59471;42.254;23.102;2023-03-24T06:17:48;96056.66;;;5.37;79.74
71621;BME280;59471;42.254;23.102;2023-03-24T06:20:15;96063.19;;;5.51;79.00
71621;BME280;59471;42.254;23.102;2023-03-24T06:22:44;96063.03;;;5.62;79.00
71621;BME280;59471;42.254;23.102;2023-03-24T06:25:13;96063.25;;;5.78;78.39
71621;BME280;59471;42.254;23.102;2023-03-24T06:27:44;96059.81;;;5.88;79.12
71621;BME280;59471;42.254;23.102;2023-03-24T06:30:16;96061.88;;;5.94;78.93
71621;BME280;59471;42.254;23.102;2023-03-24T06:32:42;96058.03;;;5.88;78.66
71621;BME280;59471;42.254;23.102;2023-03-24T06:35:14;96062.63;;;6.04;78.11
71621;BME280;59471;42.254;23.102;2023-03-24T06:37:40;96067.75;;;6.23;77.95
71621;BME280;59471;42.254;23.102;2023-03-24T06:40:07;96058.19;;;6.42;78.20
71621;BME280;59471;42.254;23.102;2023-03-24T06:42:39;96071.25;;;6.78;77.33
71621;BME280;59471;42.254;23.102;2023-03-24T06:45:05;96067.09;;;6.85;75.42
71621;BME280;59471;42.254;23.102;2023-03-24T06:47:31;96072.16;;;7.04;75.30
71621;BME280;59471;42.254;23.102;2023-03-24T06:49:57;96072.16;;;7.04;75.70
71621;BME280;59471;42.254;23.102;2023-03-24T06:52:22;96076.53;;;7.04;76.03
71621;BME280;59471;42.254;23.102;2023-03-24T06:54:48;96073.31;;;7.28;74.78
71621;BME280;59471;42.254;23.102;2023-03-24T06:57:14;96076.66;;;7.38;74.26
71621;BME280;59471;42.254;23.102;2023-03-24T06:59:40;96066.69;;;7.33;73.91
71621;BME280;59471;42.254;23.102;2023-03-24T07:02:09;96075.63;;;7.31;74.18
71621;BME280;59471;42.254;23.102;2023-03-24T07:04:36;96071.19;;;7.49;73.55
71621;BME280;59471;42.254;23.102;2023-03-24T07:07:02;96072.16;;;7.74;72.86
71621;BME280;59471;42.254;23.102;2023-03-24T07:09:28;96074.66;;;7.84;72.61
71621;BME280;59471;42.254;23.102;2023-03-24T07:11:54;96072.22;;;7.82;72.51
71621;BME280;59471;42.254;23.102;2023-03-24T07:14:20;96071.63;;;7.88;72.30
71621;BME280;59471;42.254;23.102;2023-03-24T07:16:46;96070.91;;;8.12;71.41
71621;BME280;59471;42.254;23.102;2023-03-24T07:19:11;96065.09;;;8.27;71.57
71621;BME280;59471;42.254;23.102;2023-03-24T07:21:37;96077.63;;;8.57;70.45
71621;BME280;59471;42.254;23.102;2023-03-24T07:24:03;96063.63;;;8.75;70.36
71621;BME280;59471;42.254;23.102;2023-03-24T07:26:28;96067.34;;;8.56;71.20
71621;BME280;59471;42.254;23.102;2023-03-24T07:28:54;96061.66;;;8.69;69.89
71621;BME280;59471;42.254;23.102;2023-03-24T07:31:20;96067.91;;;8.84;69.63
71621;BME280;59471;42.254;23.102;2023-03-24T07:33:47;96070.47;;;8.76;69.12
71621;BME280;59471;42.254;23.102;2023-03-24T07:36:12;96070.84;;;8.89;69.85
71621;BME280;59471;42.254;23.102;2023-03-24T07:38:38;96072.66;;;8.97;69.82
71621;BME280;59471;42.254;23.102;2023-03-24T07:41:03;96070.72;;;9.15;69.21
71621;BME280;59471;42.254;23.102;2023-03-24T07:43:29;96069.41;;;9.44;68.83
71621;BME280;59471;42.254;23.102;2023-03-24T07:45:55;96072.50;;;9.56;68.87
71621;BME280;59471;42.254;23.102;2023-03-24T07:48:21;96066.44;;;9.71;68.56
71621;BME280;59471;42.254;23.102;2023-03-24T07:50:46;96073.72;;;9.92;69.76
71621;BME280;59471;42.254;23.102;2023-03-24T07:53:12;96073.38;;;9.95;68.49
71621;BME280;59471;42.254;23.102;2023-03-24T07:55:39;96078.22;;;10.15;68.63
71621;BME280;59471;42.254;23.102;2023-03-24T07:58:05;96069.72;;;10.29;68.03
71621;BME280;59471;42.254;23.102;2023-03-24T08:00:30;96068.75;;;10.22;67.37
71621;BME280;59471;42.254;23.102;2023-03-24T08:02:58;96066.75;;;10.40;67.14
71621;BME280;59471;42.254;23.102;2023-03-24T08:05:24;96057.81;;;10.58;65.11
71621;BME280;59471;42.254;23.102;2023-03-24T08:07:55;96045.47;;;10.43;66.09
71621;BME280;59471;42.254;23.102;2023-03-24T08:10:29;96055.75;;;10.76;64.35
71621;BME280;59471;42.254;23.102;2023-03-24T08:12:56;96050.25;;;10.63;65.59
71621;BME280;59471;42.254;23.102;2023-03-24T08:15:23;96051.91;;;10.87;64.83
71621;BME280;59471;42.254;23.102;2023-03-24T08:17:51;96052.94;;;10.78;66.76
71621;BME280;59471;42.254;23.102;2023-03-24T08:20:18;96051.19;;;10.70;66.65
71621;BME280;59471;42.254;23.102;2023-03-24T08:22:47;96048.59;;;10.62;64.96
71621;BME280;59471;42.254;23.102;2023-03-24T08:25:17;96047.72;;;11.01;63.39
71621;BME280;59471;42.254;23.102;2023-03-24T08:27:44;96035.72;;;11.06;62.45
71621;BME280;59471;42.254;23.102;2023-03-24T08:30:16;96029.41;;;11.39;62.29
71621;BME280;59471;42.254;23.102;2023-03-24T08:32:49;96036.41;;;11.23;62.01
71621;BME280;59471;42.254;23.102;2023-03-24T08:35:22;96030.31;;;11.46;62.11
71621;BME280;59471;42.254;23.102;2023-03-24T08:37:53;96028.94;;;11.88;60.69
71621;BME280;59471;42.254;23.102;2023-03-24T08:40:20;96016.91;;;11.93;59.78
71621;BME280;59471;42.254;23.102;2023-03-24T08:42:50;96010.38;;;12.04;58.75
71621;BME280;59471;42.254;23.102;2023-03-24T08:45:21;96013.00;;;11.74;59.85
71621;BME280;59471;42.254;23.102;2023-03-24T08:47:50;96006.50;;;12.00;59.05
71621;BME280;59471;42.254;23.102;2023-03-24T08:50:21;96008.47;;;11.98;57.58
71621;BME280;59471;42.254;23.102;2023-03-24T08:52:48;96003.22;;;12.27;58.16
71621;BME280;59471;42.254;23.102;2023-03-24T08:55:16;96002.25;;;12.50;57.40
71621;BME280;59471;42.254;23.102;2023-03-24T08:57:42;96005.84;;;12.85;55.48
71621;BME280;59471;42.254;23.102;2023-03-24T09:00:09;95991.03;;;12.78;55.83
71621;BME280;59471;42.254;23.102;2023-03-24T09:02:40;95991.16;;;13.12;55.15
71621;BME280;59471;42.254;23.102;2023-03-24T09:05:07;95992.28;;;13.03;55.88
71621;BME280;59471;42.254;23.102;2023-03-24T09:07:33;95989.78;;;12.95;55.05
71621;BME280;59471;42.254;23.102;2023-03-24T09:09:58;95998.41;;;13.32;54.58
71621;BME280;59471;42.254;23.102;2023-03-24T09:12:25;95993.72;;;13.55;56.42
71621;BME280;59471;42.254;23.102;2023-03-24T09:14:50;95985.84;;;13.55;52.88
71621;BME280;59471;42.254;23.102;2023-03-24T09:17:16;95970.81;;;13.49;52.48
71621;BME280;59471;42.254;23.102;2023-03-24T09:19:42;95971.09;;;13.33;52.03
71621;BME280;59471;42.254;23.102;2023-03-24T09:22:09;95971.25;;;13.53;53.30
71621;BME280;59471;42.254;23.102;2023-03-24T09:24:35;95963.16;;;13.89;52.04
71621;BME280;59471;42.254;23.102;2023-03-24T09:27:01;95964.19;;;13.88;52.10
71621;BME280;59471;42.254;23.102;2023-03-24T09:29:28;95957.75;;;13.97;51.32
71621;BME280;59471;42.254;23.102;2023-03-24T09:31:54;95950.06;;;14.09;52.26
71621;BME280;59471;42.254;23.102;2023-03-24T09:34:22;95946.84;;;14.07;50.71
71621;BME280;59471;42.254;23.102;2023-03-24T09:36:48;95940.81;;;14.20;50.31
71621;BME280;59471;42.254;23.102;2023-03-24T09:39:13;95938.94;;;14.62;48.23
71621;BME280;59471;42.254;23.102;2023-03-24T09:41:42;95935.09;;;14.71;47.89
71621;BME280;59471;42.254;23.102;2023-03-24T09:44:42;95934.91;;;14.79;49.05
71621;BME280;59471;42.254;23.102;2023-03-24T09:49:51;95930.44;;;14.99;48.96
71621;BME280;59471;42.254;23.102;2023-03-24T09:52:22;95931.88;;;15.09;47.59
71621;BME280;59471;42.254;23.102;2023-03-24T09:54:56;95926.19;;;14.98;49.55
71621;BME280;59471;42.254;23.102;2023-03-24T09:57:43;95921.34;;;14.95;48.72
71621;BME280;59471;42.254;23.102;2023-03-24T10:00:31;95925.00;;;14.94;48.65
71621;BME280;59471;42.254;23.102;2023-03-24T10:02:59;95906.91;;;15.18;46.85
71621;BME280;59471;42.254;23.102;2023-03-24T10:05:40;95910.09;;;15.60;47.12
71621;BME280;59471;42.254;23.102;2023-03-24T10:20:25;95890.72;;;17.01;44.95
71621;BME280;59471;42.254;23.102;2023-03-24T10:31:27;95871.22;;;17.38;44.64
71621;BME280;59471;42.254;23.102;2023-03-24T10:33:55;95861.84;;;17.79;45.76
71621;BME280;59471;42.254;23.102;2023-03-24T10:36:21;95867.13;;;18.16;43.20
71621;BME280;59471;42.254;23.102;2023-03-24T10:38:48;95861.91;;;18.10;39.70
71621;BME280;59471;42.254;23.102;2023-03-24T10:41:24;95856.50;;;18.16;39.58
71621;BME280;59471;42.254;23.102;2023-03-24T10:43:54;95853.72;;;18.11;41.23
71621;BME280;59471;42.254;23.102;2023-03-24T10:46:23;95839.16;;;18.32;38.35
71621;BME280;59471;42.254;23.102;2023-03-24T10:48:52;95841.63;;;18.45;40.02
71621;BME280;59471;42.254;23.102;2023-03-24T10:51:24;95832.91;;;18.26;41.10
71621;BME280;59471;42.254;23.102;2023-03-24T10:54:13;95842.34;;;18.64;39.64
71621;BME280;59471;42.254;23.102;2023-03-24T10:56:42;95831.44;;;18.72;38.26
71621;BME280;59471;42.254;23.102;2023-03-24T10:59:21;95836.66;;;18.91;41.07
71621;BME280;59471;42.254;23.102;2023-03-24T11:01:58;95825.94;;;19.33;39.92
71621;BME280;59471;42.254;23.102;2023-03-24T11:04:55;95819.69;;;19.04;38.06
71621;BME280;59471;42.254;23.102;2023-03-24T11:07:28;95824.91;;;18.45;36.08
71621;BME280;59471;42.254;23.102;2023-03-24T11:12:35;95818.88;;;18.80;36.53
71621;BME280;59471;42.254;23.102;2023-03-24T11:15:20;95808.94;;;19.10;36.44
71621;BME280;59471;42.254;23.102;2023-03-24T11:18:21;95806.50;;;19.32;35.94
71621;BME280;59471;42.254;23.102;2023-03-24T11:20:52;95793.69;;;19.64;37.46
71621;BME280;59471;42.254;23.102;2023-03-24T11:23:25;95795.53;;;19.52;34.19
71621;BME280;59471;42.254;23.102;2023-03-24T11:26:13;95792.00;;;19.23;32.96
71621;BME280;59471;42.254;23.102;2023-03-24T11:28:45;95785.38;;;19.26;35.02
71621;BME280;59471;42.254;23.102;2023-03-24T11:31:13;95776.78;;;19.71;34.89
71621;BME280;59471;42.254;23.102;2023-03-24T11:34:00;95782.38;;;19.86;35.43
71621;BME280;59471;42.254;23.102;2023-03-24T11:41:37;95761.38;;;19.84;29.10
71621;BME280;59471;42.254;23.102;2023-03-24T11:44:24;95758.66;;;19.67;25.85
71621;BME280;59471;42.254;23.102;2023-03-24T11:47:12;95757.41;;;19.58;30.39
71621;BME280;59471;42.254;23.102;2023-03-24T11:49:45;95744.63;;;19.84;29.69
71621;BME280;59471;42.254;23.102;2023-03-24T11:52:24;95746.72;;;20.44;33.75
71621;BME280;59471;42.254;23.102;2023-03-24T11:54:54;95746.34;;;20.69;33.77
71621;BME280;59471;42.254;23.102;2023-03-24T11:57:36;95744.06;;;20.95;31.62
71621;BME280;59471;42.254;23.102;2023-03-24T12:00:24;95734.63;;;20.87;32.40
71621;BME280;59471;42.254;23.102;2023-03-24T12:04:00;95731.69;;;21.27;33.00
71621;BME280;59471;42.254;23.102;2023-03-24T12:12:02;95713.81;;;21.67;30.84
71621;BME280;59471;42.254;23.102;2023-03-24T12:17:39;95704.75;;;21.24;29.10
71621;BME280;59471;42.254;23.102;2023-03-24T12:20:25;95699.69;;;20.83;28.39
71621;BME280;59471;42.254;23.102;2023-03-24T12:23:23;95688.16;;;21.17;26.49
71621;BME280;59471;42.254;23.102;2023-03-24T12:35:09;95690.25;;;21.59;27.44
71621;BME280;59471;42.254;23.102;2023-03-24T12:44:01;95670.88;;;21.19;23.54
71621;BME280;59471;42.254;23.102;2023-03-24T12:53:51;95646.03;;;21.85;23.02
71621;BME280;59471;42.254;23.102;2023-03-24T12:56:13;95646.47;;;22.09;24.12
71621;BME280;59471;42.254;23.102;2023-03-24T13:01:27;95643.06;;;22.51;23.59
71621;BME280;59471;42.254;23.102;2023-03-24T13:04:19;95641.66;;;22.38;24.40
71621;BME280;59471;42.254;23.102;2023-03-24T13:18:05;95616.56;;;21.69;21.29
71621;BME280;59471;42.254;23.102;2023-03-24T13:20:57;95617.84;;;22.26;22.71
71621;BME280;59471;42.254;23.102;2023-03-24T13:34:52;95598.03;;;23.17;23.42
71621;BME280;59471;42.254;23.102;2023-03-24T13:37:45;95601.19;;;22.99;24.90
71621;BME280;59471;42.254;23.102;2023-03-24T13:40:21;95589.47;;;23.15;22.10
71621;BME280;59471;42.254;23.102;2023-03-24T13:45:39;95586.44;;;22.38;22.26
71621;BME280;59471;42.254;23.102;2023-03-24T13:48:24;95586.88;;;22.25;23.91
71621;BME280;59471;42.254;23.102;2023-03-24T13:51:27;95578.06;;;22.25;24.84
71621;BME280;59471;42.254;23.102;2023-03-24T13:53:56;95576.94;;;21.83;23.13
71621;BME280;59471;42.254;23.102;2023-03-24T13:56:41;95579.78;;;22.04;21.38
71621;BME280;59471;42.254;23.102;2023-03-24T14:03:13;95569.13;;;22.04;21.67
71621;BME280;59471;42.254;23.102;2023-03-24T14:21:57;95562.78;;;21.45;21.07
71621;BME280;59471;42.254;23.102;2023-03-24T14:24:28;95561.41;;;21.75;22.35
71621;BME280;59471;42.254;23.102;2023-03-24T14:26:55;95564.84;;;22.03;22.72
71621;BME280;59471;42.254;23.102;2023-03-24T14:32:02;95556.38;;;21.46;22.93
71621;BME280;59471;42.254;23.102;2023-03-24T14:34:29;95559.44;;;21.06;24.65
71621;BME280;59471;42.254;23.102;2023-03-24T14:37:00;95553.13;;;20.90;25.08
71621;BME280;59471;42.254;23.102;2023-03-24T14:39:39;95555.72;;;20.85;24.83
71621;BME280;59471;42.254;23.102;2023-03-24T14:47:59;95548.00;;;20.62;26.68
71621;BME280;59471;42.254;23.102;2023-03-24T14:50:26;95552.19;;;20.57;27.17
71621;BME280;59471;42.254;23.102;2023-03-24T14:53:02;95548.03;;;20.45;26.83
71621;BME280;59471;42.254;23.102;2023-03-24T14:55:28;95547.44;;;20.21;27.04
71621;BME280;59471;42.254;23.102;2023-03-24T14:57:59;95539.88;;;20.12;27.20
71621;BME280;59471;42.254;23.102;2023-03-24T15:00:36;95545.81;;;20.20;27.29
71621;BME280;59471;42.254;23.102;2023-03-24T15:05:52;95534.66;;;20.56;26.24
71621;BME280;59471;42.254;23.102;2023-03-24T15:08:22;95539.69;;;20.58;26.77
71621;BME280;59471;42.254;23.102;2023-03-24T15:11:01;95534.84;;;20.72;26.17
71621;BME280;59471;42.254;23.102;2023-03-24T15:18:56;95530.78;;;20.47;26.09
71621;BME280;59471;42.254;23.102;2023-03-24T15:21:27;95536.38;;;20.29;26.64
71621;BME280;59471;42.254;23.102;2023-03-24T15:24:01;95537.31;;;20.18;26.01
71621;BME280;59471;42.254;23.102;2023-03-24T15:26:30;95534.56;;;20.12;24.91
71621;BME280;59471;42.254;23.102;2023-03-24T15:29:01;95538.78;;;20.08;25.84
71621;BME280;59471;42.254;23.102;2023-03-24T15:31:31;95532.31;;;20.04;25.85
71621;BME280;59471;42.254;23.102;2023-03-24T15:34:44;95520.97;;;20.09;26.39
71621;BME280;59471;42.254;23.102;2023-03-24T15:39:49;95525.09;;;20.00;30.16
71621;BME280;59471;42.254;23.102;2023-03-24T15:42:19;95523.09;;;19.90;32.06
71621;BME280;59471;42.254;23.102;2023-03-24T15:44:46;95526.72;;;19.67;31.29
71621;BME280;59471;42.254;23.102;2023-03-24T15:47:28;95523.50;;;19.65;31.59
71621;BME280;59471;42.254;23.102;2023-03-24T15:49:57;95521.03;;;19.63;31.51
71621;BME280;59471;42.254;23.102;2023-03-24T15:52:31;95523.97;;;19.79;31.70
71621;BME280;59471;42.254;23.102;2023-03-24T15:55:22;95531.22;;;19.83;30.92
71621;BME280;59471;42.254;23.102;2023-03-24T15:57:53;95526.72;;;19.84;32.04
71621;BME280;59471;42.254;23.102;2023-03-24T16:00:25;95523.81;;;20.02;31.90
71621;BME280;59471;42.254;23.102;2023-03-24T16:02:54;95529.13;;;20.02;31.45
71621;BME280;59471;42.254;23.102;2023-03-24T16:05:28;95527.97;;;19.98;31.79
71621;BME280;59471;42.254;23.102;2023-03-24T16:08:03;95523.22;;;20.00;31.67
71621;BME280;59471;42.254;23.102;2023-03-24T16:10:41;95522.97;;;20.02;30.85
71621;BME280;59471;42.254;23.102;2023-03-24T16:13:18;95527.00;;;20.04;30.87
71621;BME280;59471;42.254;23.102;2023-03-24T16:20:53;95538.88;;;19.80;30.98
71621;BME280;59471;42.254;23.102;2023-03-24T16:23:18;95541.38;;;19.70;31.00
71621;BME280;59471;42.254;23.102;2023-03-24T16:25:44;95532.56;;;19.52;31.49